createdAt,value
2023-03-31T00:01:19.668Z,96945.50
2023-03-31T00:03:25.128Z,96957.41
2023-03-31T00:05:26.593Z,96955.59
2023-03-31T00:07:27.891Z,96949.41
2023-03-31T00:09:29.973Z,96948.59
2023-03-31T00:11:31.394Z,96948.81
2023-03-31T00:13:32.712Z,96949.84
2023-03-31T00:15:34.004Z,96944.09
2023-03-31T00:17:35.340Z,96946.72
2023-03-31T00:19:36.648Z,96950.03
2023-03-31T00:21:37.947Z,96953.47
2023-03-31T00:23:39.279Z,96946.66
2023-03-31T00:25:43.732Z,96940.81
2023-03-31T00:27:45.092Z,96948.47
2023-03-31T00:29:47.293Z,96938.34
2023-03-31T00:31:48.625Z,96934.91
2023-03-31T00:33:50.034Z,96929.84
2023-03-31T00:35:51.951Z,96937.63
2023-03-31T00:37:53.997Z,96935.88
2023-03-31T00:39:55.292Z,96928.91
2023-03-31T00:41:56.587Z,96930.56
2023-03-31T00:43:57.911Z,96922.16
2023-03-31T00:45:59.236Z,96917.94
2023-03-31T00:48:01.117Z,96929.72
2023-03-31T00:50:02.422Z,96915.38
2023-03-31T00:52:05.156Z,96920.47
2023-03-31T00:54:06.450Z,96909.50
2023-03-31T00:56:08.221Z,96909.44
2023-03-31T00:58:09.695Z,96909.53
2023-03-31T01:00:17.278Z,96905.28
2023-03-31T01:02:20.816Z,96904.50
2023-03-31T01:04:22.888Z,96905.22
2023-03-31T01:06:25.337Z,96900.13
2023-03-31T01:08:27.160Z,96896.84
2023-03-31T01:10:28.486Z,96897.72
2023-03-31T01:12:29.777Z,96895.25
2023-03-31T01:14:31.125Z,96896.97
2023-03-31T01:16:34.037Z,96887.47
2023-03-31T01:18:35.447Z,96877.16
2023-03-31T01:20:36.757Z,96878.78
2023-03-31T01:22:39.018Z,96873.69
2023-03-31T01:24:40.312Z,96868.59
2023-03-31T01:26:42.094Z,96866.03
2023-03-31T01:28:43.422Z,96866.78
2023-03-31T01:30:44.808Z,96862.53
2023-03-31T01:32:46.419Z,96863.38
2023-03-31T01:34:47.769Z,96859.94
2023-03-31T01:36:49.069Z,96860.81
2023-03-31T01:38:50.431Z,96853.06
2023-03-31T01:40:51.845Z,96847.22
2023-03-31T01:42:53.278Z,96840.31
2023-03-31T01:44:54.623Z,96833.56
2023-03-31T01:46:55.920Z,96842.06
2023-03-31T01:48:57.211Z,96831.78
2023-03-31T01:50:58.504Z,96831.72
2023-03-31T01:52:59.798Z,96822.06
2023-03-31T01:55:01.146Z,96818.59
2023-03-31T01:57:02.466Z,96821.91
2023-03-31T01:59:03.855Z,96825.31
2023-03-31T02:01:05.914Z,96816.63
2023-03-31T02:03:08.018Z,96815.72
2023-03-31T02:05:09.914Z,96819.94
2023-03-31T02:07:12.103Z,96814.91
2023-03-31T02:09:13.471Z,96812.38
2023-03-31T02:11:14.814Z,96813.25
2023-03-31T02:13:16.190Z,96814.06
2023-03-31T02:15:18.337Z,96805.50
2023-03-31T02:17:19.654Z,96802.94
2023-03-31T02:19:20.949Z,96793.66
2023-03-31T02:21:22.850Z,96790.31
2023-03-31T02:23:26.583Z,96783.47
2023-03-31T02:25:28.079Z,96790.31
2023-03-31T02:27:29.422Z,96781.06
2023-03-31T02:29:30.867Z,96782.72
2023-03-31T02:31:32.306Z,96783.59
2023-03-31T02:33:33.658Z,96789.72
2023-03-31T02:35:36.780Z,96788.13
2023-03-31T02:37:38.157Z,96783.28
2023-03-31T02:39:39.497Z,96786.69
2023-03-31T02:41:41.304Z,96779.19
2023-03-31T02:43:42.821Z,96778.41
2023-03-31T02:45:44.209Z,96770.00
2023-03-31T02:47:45.702Z,96768.41
2023-03-31T02:49:47.174Z,96763.22
2023-03-31T02:51:48.627Z,96752.13
2023-03-31T02:53:49.967Z,96751.38
2023-03-31T02:55:51.383Z,96759.16
2023-03-31T02:57:52.713Z,96745.56
2023-03-31T02:59:54.003Z,96744.59
2023-03-31T03:01:55.294Z,96739.50
2023-03-31T03:03:56.601Z,96743.72
2023-03-31T03:05:58.859Z,96732.47
2023-03-31T03:08:00.421Z,96731.34
2023-03-31T03:10:02.174Z,96734.38
2023-03-31T03:12:03.485Z,96730.00
2023-03-31T03:14:06.144Z,96720.47
2023-03-31T03:16:07.535Z,96728.91
2023-03-31T03:18:08.980Z,96723.66
2023-03-31T03:20:10.706Z,96726.09
2023-03-31T03:22:12.031Z,96726.72
2023-03-31T03:24:13.324Z,96727.56
2023-03-31T03:26:14.623Z,96732.56
2023-03-31T03:28:15.912Z,96725.00
2023-03-31T03:30:17.254Z,96730.94
2023-03-31T03:32:18.560Z,96728.44
2023-03-31T03:34:20.316Z,96725.06
2023-03-31T03:36:23.070Z,96720.94
2023-03-31T03:38:24.555Z,96719.25
2023-03-31T03:40:25.926Z,96712.56
2023-03-31T03:42:27.222Z,96721.13
2023-03-31T03:44:28.564Z,96721.25
2023-03-31T03:46:29.936Z,96723.88
2023-03-31T03:48:31.247Z,96706.25
2023-03-31T03:50:32.601Z,96709.69
2023-03-31T03:52:33.906Z,96716.56
2023-03-31T03:54:35.204Z,96703.13
2023-03-31T03:56:36.542Z,96707.38
2023-03-31T03:58:37.986Z,96704.88
2023-03-31T04:00:39.324Z,96711.75
2023-03-31T04:02:40.885Z,96699.03
2023-03-31T04:04:42.378Z,96697.50
2023-03-31T04:06:43.730Z,96693.41
2023-03-31T04:08:45.023Z,96685.97
2023-03-31T04:10:46.577Z,96687.69
2023-03-31T04:12:47.921Z,96679.28
2023-03-31T04:14:49.276Z,96673.53
2023-03-31T04:16:50.623Z,96685.59
2023-03-31T04:18:52.906Z,96675.50
2023-03-31T04:21:06.576Z,96679.84
2023-03-31T04:23:09.755Z,96676.34
2023-03-31T04:25:15.020Z,96673.84
2023-03-31T04:27:17.767Z,96681.44
2023-03-31T04:29:22.643Z,96672.00
2023-03-31T04:31:26.878Z,96669.63
2023-03-31T04:33:28.197Z,96669.56
2023-03-31T04:35:42.840Z,96658.25
2023-03-31T04:37:44.291Z,96649.31
2023-03-31T04:39:46.714Z,96652.81
2023-03-31T04:41:48.052Z,96649.34
2023-03-31T04:43:49.377Z,96647.59
2023-03-31T04:45:50.816Z,96649.19
2023-03-31T04:47:52.242Z,96646.53
2023-03-31T04:49:53.738Z,96640.44
2023-03-31T04:51:55.289Z,96637.81
2023-03-31T04:53:56.590Z,96637.69
2023-03-31T04:55:57.882Z,96633.41
2023-03-31T04:57:59.188Z,96627.47
2023-03-31T05:00:00.567Z,96633.41
2023-03-31T05:02:02.273Z,96627.47
2023-03-31T05:04:03.721Z,96615.53
2023-03-31T05:06:05.327Z,96624.06
2023-03-31T05:08:06.900Z,96612.13
2023-03-31T05:10:08.258Z,96616.50
2023-03-31T05:12:09.556Z,96614.13
2023-03-31T05:14:11.107Z,96618.47
2023-03-31T05:16:14.462Z,96615.19
2023-03-31T05:18:15.999Z,96616.09
2023-03-31T05:20:17.694Z,96491.56
2023-03-31T05:22:20.748Z,96611.75
2023-03-31T05:24:22.300Z,96608.78
2023-03-31T05:26:25.110Z,96612.50
2023-03-31T05:28:26.402Z,96598.88
2023-03-31T05:30:27.719Z,96606.09
2023-03-31T05:32:29.103Z,96601.84
2023-03-31T05:34:30.869Z,96589.00
2023-03-31T05:36:32.296Z,96593.22
2023-03-31T05:38:34.655Z,96589.97
2023-03-31T05:40:35.970Z,96590.09
2023-03-31T05:42:37.292Z,96589.34
2023-03-31T05:44:38.593Z,96588.59
2023-03-31T05:46:39.934Z,96576.72
2023-03-31T05:48:41.307Z,96578.44
2023-03-31T05:50:43.127Z,96575.81
2023-03-31T05:52:44.528Z,96571.56
2023-03-31T05:54:45.817Z,96570.66
2023-03-31T05:56:47.156Z,96569.69
2023-03-31T05:58:48.525Z,96559.34
2023-03-31T06:00:49.851Z,96554.81
2023-03-31T06:02:51.534Z,96557.16
2023-03-31T06:04:53.150Z,96554.41
2023-03-31T06:06:55.952Z,96550.97
2023-03-31T06:08:57.278Z,96541.47
2023-03-31T06:10:58.643Z,96544.75
2023-03-31T06:13:00.033Z,96546.25
2023-03-31T06:15:01.480Z,96552.06
2023-03-31T06:17:02.856Z,96541.03
2023-03-31T06:19:04.147Z,96540.88
2023-03-31T06:21:05.935Z,96546.75
2023-03-31T06:23:07.439Z,96534.06
2023-03-31T06:25:08.768Z,96533.19
2023-03-31T06:27:10.327Z,96476.88
2023-03-31T06:29:11.662Z,96533.97
2023-03-31T06:31:13.041Z,96527.13
2023-03-31T06:33:14.513Z,96522.88
2023-03-31T06:35:16.752Z,96518.75
2023-03-31T06:37:18.103Z,96519.50
2023-03-31T06:39:19.397Z,96520.34
2023-03-31T06:41:21.259Z,96514.63
2023-03-31T06:43:22.707Z,96506.97
2023-03-31T06:45:24.054Z,96510.25
2023-03-31T06:47:25.439Z,96506.13
2023-03-31T06:49:26.902Z,96495.09
2023-03-31T06:51:29.669Z,96502.81
2023-03-31T06:53:32.141Z,96502.00
2023-03-31T06:55:33.969Z,96505.44
2023-03-31T06:57:35.320Z,96495.38
2023-03-31T06:59:36.717Z,96501.47
2023-03-31T07:01:39.235Z,96510.88
2023-03-31T07:03:40.827Z,96510.97
2023-03-31T07:05:42.237Z,96508.47
2023-03-31T07:07:46.179Z,96506.09
2023-03-31T07:09:47.752Z,96505.25
2023-03-31T07:11:49.042Z,96514.84
2023-03-31T07:13:50.373Z,96503.97
2023-03-31T07:15:51.746Z,96487.25
2023-03-31T07:18:02.654Z,96495.78
2023-03-31T07:20:04.532Z,96494.13
2023-03-31T07:22:06.178Z,96486.59
2023-03-31T07:24:07.573Z,96486.56
2023-03-31T07:26:08.945Z,96474.63
2023-03-31T07:28:10.284Z,96475.25
2023-03-31T07:30:11.619Z,96474.19
2023-03-31T07:32:13.128Z,96459.66
2023-03-31T07:34:14.484Z,96462.13
2023-03-31T07:36:16.076Z,96466.34
2023-03-31T07:38:17.693Z,96472.22
2023-03-31T07:40:18.997Z,96466.97
2023-03-31T07:42:20.643Z,96461.72
2023-03-31T07:44:23.402Z,96454.81
2023-03-31T07:46:24.859Z,96449.59
2023-03-31T07:48:28.733Z,96453.63
2023-03-31T07:50:30.405Z,96457.91
2023-03-31T07:52:31.785Z,96445.97
2023-03-31T07:54:33.104Z,96454.38
2023-03-31T07:56:34.417Z,96451.78
2023-03-31T07:58:35.898Z,96447.50
2023-03-31T08:00:37.251Z,96442.41
2023-03-31T08:02:38.710Z,96436.31
2023-03-31T08:04:42.275Z,96428.59
2023-03-31T08:06:46.497Z,96420.09
2023-03-31T08:08:47.792Z,96423.28
2023-03-31T08:10:49.133Z,96413.81
2023-03-31T08:12:50.432Z,96416.97
2023-03-31T08:14:51.724Z,96419.44
2023-03-31T08:16:55.351Z,96417.53
2023-03-31T08:18:56.653Z,96414.97
2023-03-31T08:20:58.002Z,96413.41
2023-03-31T08:22:59.337Z,96401.47
2023-03-31T08:25:00.690Z,96403.31
2023-03-31T08:27:02.059Z,96405.94
2023-03-31T08:29:04.152Z,96401.94
2023-03-31T08:31:05.919Z,96402.31
2023-03-31T08:33:07.855Z,96403.81
2023-03-31T08:35:09.739Z,96397.81
2023-03-31T08:37:11.204Z,96398.94
2023-03-31T08:39:13.061Z,96393.00
2023-03-31T08:41:14.399Z,96389.78
2023-03-31T08:43:15.727Z,96393.97
2023-03-31T08:45:17.084Z,96385.56
2023-03-31T08:47:18.424Z,96384.72
2023-03-31T08:49:19.772Z,96389.16
2023-03-31T08:51:21.876Z,96397.03
2023-03-31T08:53:23.175Z,96393.84
2023-03-31T08:55:24.489Z,96386.47
2023-03-31T08:57:25.851Z,96396.03
2023-03-31T08:59:30.433Z,96386.78
2023-03-31T09:01:37.963Z,96387.59
2023-03-31T09:03:45.941Z,96394.50
2023-03-31T09:06:12.544Z,96381.69
2023-03-31T09:08:08.622Z,96383.19
2023-03-31T09:10:09.923Z,96386.56
2023-03-31T09:12:11.253Z,96387.41
2023-03-31T09:14:12.538Z,96380.50
2023-03-31T09:16:16.309Z,96385.38
2023-03-31T09:18:18.083Z,96380.13
2023-03-31T09:20:19.438Z,96377.59
2023-03-31T09:22:21.000Z,96366.47
2023-03-31T09:24:23.678Z,96369.88
2023-03-31T09:26:25.081Z,96364.59
2023-03-31T09:28:27.222Z,96367.00
2023-03-31T09:30:28.525Z,96359.34
2023-03-31T09:32:30.059Z,96351.63
2023-03-31T09:34:31.777Z,96348.16
2023-03-31T09:36:33.204Z,96345.69
2023-03-31T09:38:34.518Z,96342.47
2023-03-31T09:40:35.952Z,96340.81
2023-03-31T09:42:37.315Z,96334.19
2023-03-31T09:44:38.658Z,96329.31
2023-03-31T09:46:40.010Z,96328.59
2023-03-31T09:48:41.620Z,96322.56
2023-03-31T09:50:42.903Z,96322.56
2023-03-31T09:52:44.218Z,96321.81
2023-03-31T09:54:45.595Z,96317.53
2023-03-31T09:56:48.700Z,96314.03
2023-03-31T09:58:50.184Z,96307.25
2023-03-31T10:00:51.720Z,96304.78
2023-03-31T10:02:53.118Z,96309.06
2023-03-31T10:04:54.541Z,96300.81
2023-03-31T10:06:55.849Z,96300.81
2023-03-31T10:08:58.323Z,96299.13
2023-03-31T10:11:01.270Z,96294.88
2023-03-31T10:13:02.565Z,96297.50
2023-03-31T10:15:03.871Z,96288.09
2023-03-31T10:17:05.780Z,96290.59
2023-03-31T10:19:07.095Z,96289.75
2023-03-31T10:21:08.641Z,96277.91
2023-03-31T10:23:10.036Z,96282.25
2023-03-31T10:25:11.544Z,96281.56
2023-03-31T10:27:12.983Z,96278.22
2023-03-31T10:29:14.360Z,96283.22
2023-03-31T10:31:16.053Z,96272.34
2023-03-31T10:33:22.592Z,96278.28
2023-03-31T10:35:24.790Z,96272.28
2023-03-31T10:37:26.198Z,96258.59
2023-03-31T10:39:27.513Z,96267.19
2023-03-31T10:41:28.905Z,96261.47
2023-03-31T10:43:30.326Z,96252.31
2023-03-31T10:45:37.885Z,96253.03
2023-03-31T10:47:39.779Z,96246.19
2023-03-31T10:49:41.159Z,96246.09
2023-03-31T10:51:45.256Z,96242.50
2023-03-31T10:53:46.879Z,96237.25
2023-03-31T10:55:48.180Z,96229.66
2023-03-31T10:57:49.469Z,96230.41
2023-03-31T10:59:52.074Z,96229.44
2023-03-31T11:01:53.785Z,96225.16
2023-03-31T11:03:55.824Z,96225.09
2023-03-31T11:05:57.279Z,96226.81
2023-03-31T11:07:58.583Z,96220.00
2023-03-31T11:09:59.918Z,96223.53
2023-03-31T11:12:01.229Z,96210.09
2023-03-31T11:14:02.588Z,96201.84
2023-03-31T11:16:03.982Z,96205.38
2023-03-31T11:18:05.435Z,96194.56
2023-03-31T11:20:07.223Z,96187.81
2023-03-31T11:22:09.806Z,96194.56
2023-03-31T11:24:11.102Z,96182.63
2023-03-31T11:26:12.427Z,96180.00
2023-03-31T11:28:13.725Z,96179.91
2023-03-31T11:30:15.069Z,96173.09
2023-03-31T11:32:16.852Z,96168.69
2023-03-31T11:34:19.044Z,96166.03
2023-03-31T11:36:20.419Z,96157.50
2023-03-31T11:38:23.899Z,96160.88
2023-03-31T11:40:26.160Z,96171.00
2023-03-31T11:42:27.465Z,96163.34
2023-03-31T11:44:28.804Z,96159.22
2023-03-31T11:46:30.434Z,96166.97
2023-03-31T11:48:31.773Z,96158.63
2023-03-31T11:50:33.065Z,96156.31
2023-03-31T11:52:34.417Z,96159.91
2023-03-31T11:54:35.925Z,96154.19
2023-03-31T11:56:37.227Z,96151.75
2023-03-31T11:58:38.513Z,96144.00
2023-03-31T12:00:39.802Z,96138.75
2023-03-31T12:02:41.499Z,95995.41
2023-03-31T12:04:42.879Z,96143.72
2023-03-31T12:06:46.608Z,96010.66
2023-03-31T12:08:47.959Z,96130.63
2023-03-31T12:10:49.339Z,96125.38
2023-03-31T12:12:51.086Z,96124.41
2023-03-31T12:14:52.382Z,96131.84
2023-03-31T12:16:53.725Z,96123.13
2023-03-31T12:18:55.116Z,96120.41
2023-03-31T12:20:56.443Z,96124.63
2023-03-31T12:22:57.768Z,96115.91
2023-03-31T12:24:59.120Z,96115.84
2023-03-31T12:27:00.560Z,96110.66
2023-03-31T12:29:04.132Z,96105.50
2023-03-31T12:31:05.567Z,96097.75
2023-03-31T12:33:07.172Z,96095.28
2023-03-31T12:35:08.626Z,96089.19
2023-03-31T12:37:11.124Z,96087.53
2023-03-31T12:39:12.484Z,96080.78
2023-03-31T12:41:15.022Z,96077.56
2023-03-31T12:43:16.510Z,96072.53
2023-03-31T12:45:17.868Z,96073.53
2023-03-31T12:47:19.215Z,96049.72
2023-03-31T12:49:20.551Z,96050.72
2023-03-31T12:51:21.907Z,96043.81
2023-03-31T12:53:24.213Z,96041.19
2023-03-31T12:55:25.550Z,96036.81
2023-03-31T12:57:27.052Z,96041.19
2023-03-31T12:59:29.136Z,96036.91
2023-03-31T13:01:30.664Z,96030.88
2023-03-31T13:03:33.958Z,96036.09
2023-03-31T13:05:35.477Z,96035.19
2023-03-31T13:07:37.086Z,96031.72
2023-03-31T13:09:38.371Z,96034.22
2023-03-31T13:11:39.716Z,96033.38
2023-03-31T13:13:54.224Z,96028.44
2023-03-31T13:16:02.219Z,96018.53
2023-03-31T13:18:03.530Z,96017.06
2023-03-31T13:20:05.216Z,96009.72
2023-03-31T13:22:06.890Z,96013.25
2023-03-31T13:24:08.200Z,96010.13
2023-03-31T13:26:09.552Z,96006.84
2023-03-31T13:28:11.168Z,96005.19
2023-03-31T13:30:12.520Z,96003.59
2023-03-31T13:32:13.889Z,96000.06
2023-03-31T13:34:15.401Z,95993.25
2023-03-31T13:36:16.780Z,95996.84
2023-03-31T13:38:18.101Z,95991.69
2023-03-31T13:40:19.441Z,95998.19
2023-03-31T13:42:20.835Z,95991.19
2023-03-31T13:44:22.139Z,95991.88
2023-03-31T13:46:26.406Z,95982.25
2023-03-31T13:48:27.766Z,95988.91
2023-03-31T13:50:29.083Z,95977.72
2023-03-31T13:52:30.592Z,95972.97
2023-03-31T13:54:31.963Z,95969.63
2023-03-31T13:56:33.276Z,95964.91
2023-03-31T13:58:35.586Z,95967.78
2023-03-31T14:00:37.100Z,95954.56
2023-03-31T14:02:38.663Z,95957.75
2023-03-31T14:04:40.048Z,95947.72
2023-03-31T14:06:41.406Z,95949.41
2023-03-31T14:08:42.753Z,95935.34
2023-03-31T14:10:44.047Z,95939.66
2023-03-31T14:12:47.702Z,95932.00
2023-03-31T14:14:49.205Z,95928.72
2023-03-31T14:16:50.543Z,95927.44
2023-03-31T14:18:52.894Z,95923.94
2023-03-31T14:20:54.230Z,95923.31
2023-03-31T14:22:58.588Z,95919.94
2023-03-31T14:24:59.883Z,95919.56
2023-03-31T14:27:02.245Z,95922.56
2023-03-31T14:29:03.548Z,95914.03
2023-03-31T14:31:05.110Z,95915.50
2023-03-31T14:33:06.492Z,95906.56
2023-03-31T14:35:07.946Z,95912.00
2023-03-31T14:37:09.644Z,95907.53
2023-03-31T14:39:17.011Z,95894.28
2023-03-31T14:41:20.136Z,95889.34
2023-03-31T14:43:21.657Z,95886.91
2023-03-31T14:45:25.794Z,95904.25
2023-03-31T14:47:32.086Z,95908.25
2023-03-31T14:49:33.430Z,95904.06
2023-03-31T14:51:34.723Z,95887.31
2023-03-31T14:53:36.223Z,95884.84
2023-03-31T14:55:54.223Z,95892.91
2023-03-31T14:57:58.838Z,95894.97
2023-03-31T15:00:00.742Z,95901.28
2023-03-31T15:02:02.194Z,95902.38
2023-03-31T15:04:07.192Z,95900.66
2023-03-31T15:06:08.504Z,95895.13
2023-03-31T15:08:18.977Z,95907.53
2023-03-31T15:10:26.486Z,95889.78
2023-03-31T15:12:27.808Z,95899.66
2023-03-31T15:14:29.104Z,95899.22
2023-03-31T15:16:30.579Z,95893.84
2023-03-31T15:18:31.931Z,95900.28
2023-03-31T15:20:35.077Z,95897.88
2023-03-31T15:22:36.556Z,95895.00
2023-03-31T15:24:37.876Z,95891.44
2023-03-31T15:26:41.687Z,95890.56
2023-03-31T15:28:43.794Z,95883.72
2023-03-31T15:35:33.810Z,95897.22
2023-03-31T15:37:35.114Z,95897.13
2023-03-31T15:39:36.534Z,95887.00
2023-03-31T15:41:37.917Z,95883.78
2023-03-31T15:43:39.217Z,95877.81
2023-03-31T15:45:40.666Z,95884.06
2023-03-31T15:47:42.096Z,95886.06
2023-03-31T15:49:44.034Z,95883.03
2023-03-31T15:51:45.433Z,95879.94
2023-03-31T15:53:46.754Z,95893.84
2023-03-31T15:55:50.847Z,95885.00
2023-03-31T15:57:52.147Z,95887.84
2023-03-31T15:59:57.908Z,95895.97
2023-03-31T16:02:00.042Z,95886.09
2023-03-31T16:04:02.183Z,95890.97
2023-03-31T16:06:03.484Z,95885.25
2023-03-31T16:08:04.862Z,95886.75
2023-03-31T16:10:06.409Z,95891.00
2023-03-31T16:12:07.705Z,95896.38
2023-03-31T16:14:09.003Z,95888.34
2023-03-31T16:16:10.555Z,95881.69
2023-03-31T16:18:12.085Z,95884.25
2023-03-31T16:20:13.919Z,95879.22
2023-03-31T16:22:15.399Z,95885.97
2023-03-31T16:24:16.724Z,95883.03
2023-03-31T16:26:18.035Z,95877.56
2023-03-31T16:28:19.335Z,95868.00
2023-03-31T16:30:21.128Z,95871.44
2023-03-31T16:32:28.408Z,95871.56
2023-03-31T16:34:29.730Z,95882.50
2023-03-31T16:36:31.403Z,95867.72
2023-03-31T16:38:32.757Z,95879.38
2023-03-31T16:40:34.065Z,95869.47
2023-03-31T16:42:35.385Z,95863.59
2023-03-31T16:44:36.710Z,95862.66
2023-03-31T16:46:38.055Z,95864.91
2023-03-31T16:50:55.768Z,95863.97
2023-03-31T16:52:57.189Z,95860.53
2023-03-31T16:54:58.565Z,95865.50
2023-03-31T16:57:00.258Z,95871.00
2023-03-31T16:59:02.229Z,95867.13
2023-03-31T17:01:04.130Z,95869.09
2023-03-31T17:03:05.844Z,95864.16
2023-03-31T17:05:13.259Z,95867.88
2023-03-31T17:07:14.885Z,95868.56
2023-03-31T17:09:16.257Z,95871.13
2023-03-31T17:11:17.602Z,95876.66
2023-03-31T17:13:18.893Z,95868.59
2023-03-31T17:15:20.243Z,95864.53
2023-03-31T17:17:21.934Z,95872.91
2023-03-31T17:19:23.451Z,95877.63
2023-03-31T17:21:26.217Z,95882.22
2023-03-31T17:23:27.904Z,95874.84
2023-03-31T17:25:29.363Z,95876.69
2023-03-31T17:27:30.925Z,95871.75
2023-03-31T17:29:32.406Z,95871.03
2023-03-31T17:31:33.739Z,95870.31
2023-03-31T17:33:35.036Z,95866.19
2023-03-31T17:35:36.403Z,95878.13
2023-03-31T17:37:38.571Z,95865.50
2023-03-31T17:39:40.550Z,95882.56
2023-03-31T17:41:41.886Z,95894.31
2023-03-31T17:43:43.203Z,95902.19
2023-03-31T17:45:44.499Z,95897.53
2023-03-31T17:47:46.374Z,95885.78
2023-03-31T17:49:47.746Z,95908.75
2023-03-31T17:51:49.099Z,95923.47
2023-03-31T17:53:50.901Z,95928.41
2023-03-31T17:55:55.281Z,95930.38
2023-03-31T17:57:57.361Z,95935.28
2023-03-31T17:59:58.659Z,95936.16
2023-03-31T18:02:01.094Z,95933.25
2023-03-31T18:04:02.926Z,95935.06
2023-03-31T18:06:04.803Z,95932.75
2023-03-31T18:08:06.215Z,95939.22
2023-03-31T18:10:07.513Z,95933.50
2023-03-31T18:12:09.706Z,95944.31
2023-03-31T18:14:11.199Z,95944.00
2023-03-31T18:16:15.762Z,95940.47
2023-03-31T18:18:18.647Z,95941.38
2023-03-31T18:20:19.959Z,95949.28
2023-03-31T18:22:21.579Z,95938.78
2023-03-31T18:24:22.950Z,95937.94
2023-03-31T18:26:24.261Z,95940.78
2023-03-31T18:28:25.555Z,95943.72
2023-03-31T18:30:27.898Z,95941.66
2023-03-31T18:32:29.312Z,95952.41
2023-03-31T18:34:30.673Z,95954.28
2023-03-31T18:36:33.028Z,95957.16
2023-03-31T18:38:34.523Z,95962.81
2023-03-31T18:40:38.700Z,95955.88
2023-03-31T18:42:43.247Z,95962.97
2023-03-31T18:44:44.763Z,95968.56
2023-03-31T18:46:46.164Z,95969.63
2023-03-31T18:48:48.501Z,95963.13
2023-03-31T18:50:51.305Z,95821.03
2023-03-31T18:52:54.574Z,95963.91
2023-03-31T18:54:56.609Z,95965.78
2023-03-31T18:56:57.954Z,95827.41
2023-03-31T18:58:59.584Z,95969.72
2023-03-31T19:01:01.287Z,95971.81
2023-03-31T19:03:02.947Z,95964.84
2023-03-31T19:05:04.311Z,95966.44
2023-03-31T19:07:05.905Z,95968.78
2023-03-31T19:09:10.523Z,95966.69
2023-03-31T19:11:12.712Z,95972.94
2023-03-31T19:13:14.071Z,95973.19
2023-03-31T19:15:15.500Z,95963.63
2023-03-31T19:17:17.811Z,95964.31
2023-03-31T19:19:19.207Z,95974.09
2023-03-31T19:21:20.969Z,95974.09
2023-03-31T19:23:22.282Z,95968.38
2023-03-31T19:25:24.308Z,95955.38
2023-03-31T19:27:25.633Z,95954.53
2023-03-31T19:29:30.850Z,95954.06
2023-03-31T19:31:38.464Z,95954.84
2023-03-31T19:33:39.909Z,95948.16
2023-03-31T19:35:41.242Z,95951.00
2023-03-31T19:37:42.596Z,95949.34
2023-03-31T19:39:44.580Z,95949.16
2023-03-31T19:41:45.960Z,95955.13
2023-03-31T19:43:47.919Z,95956.09
2023-03-31T19:45:52.015Z,95952.28
2023-03-31T19:47:53.424Z,95957.00
2023-03-31T19:49:54.767Z,95953.56
2023-03-31T19:51:56.562Z,95956.13
2023-03-31T19:53:58.568Z,95949.41
2023-03-31T19:55:59.920Z,95953.25
2023-03-31T19:58:01.803Z,95956.94
2023-03-31T20:00:04.215Z,95945.88
2023-03-31T20:02:06.891Z,95943.22
2023-03-31T20:04:08.805Z,95939.94
2023-03-31T20:06:10.219Z,95941.84
2023-03-31T20:08:11.513Z,95936.19
2023-03-31T20:10:13.997Z,95939.84
2023-03-31T20:12:15.734Z,95938.78
2023-03-31T20:14:17.512Z,95944.88
2023-03-31T20:16:19.137Z,95938.03
2023-03-31T20:18:20.563Z,95947.53
2023-03-31T20:20:22.325Z,95947.34
2023-03-31T20:22:23.630Z,95949.06
2023-03-31T20:24:33.959Z,95948.53
2023-03-31T20:26:35.450Z,95943.53
2023-03-31T20:28:36.948Z,95948.91
2023-03-31T20:30:38.257Z,95949.72
2023-03-31T20:32:39.587Z,95944.53
2023-03-31T20:34:41.151Z,95946.09
2023-03-31T20:36:42.562Z,95955.13
2023-03-31T20:38:53.175Z,95950.25
2023-03-31T20:40:55.196Z,95951.09
2023-03-31T20:42:56.491Z,95949.88
2023-03-31T20:44:57.794Z,95951.91
2023-03-31T20:47:03.124Z,95945.88
2023-03-31T20:49:09.893Z,95949.25
2023-03-31T20:51:11.479Z,95953.28
2023-03-31T20:53:12.832Z,95953.91
2023-03-31T20:55:14.141Z,95956.31
2023-03-31T20:57:15.524Z,95951.19
2023-03-31T20:59:16.999Z,95947.81
2023-03-31T21:01:18.461Z,95946.97
2023-03-31T21:03:19.811Z,95949.34
2023-03-31T21:05:21.388Z,95956.31
2023-03-31T21:07:22.771Z,95960.06
2023-03-31T21:09:24.085Z,95958.13
2023-03-31T21:11:25.427Z,95971.06
2023-03-31T21:13:26.820Z,95964.97
2023-03-31T21:15:28.121Z,95968.91
2023-03-31T21:17:29.419Z,95977.03
2023-03-31T21:19:31.889Z,95965.53
2023-03-31T21:21:35.271Z,95972.56
2023-03-31T21:23:36.630Z,95974.09
2023-03-31T21:25:37.939Z,95974.59
2023-03-31T21:27:39.239Z,95974.59
2023-03-31T21:29:40.533Z,95969.81
2023-03-31T21:31:42.134Z,95966.78
2023-03-31T21:33:43.581Z,95962.66
2023-03-31T21:35:44.931Z,95973.09
2023-03-31T21:37:46.515Z,95972.09
2023-03-31T21:39:47.816Z,95973.28
2023-03-31T21:41:49.099Z,95965.50
2023-03-31T21:43:51.347Z,95968.91
2023-03-31T21:45:54.495Z,95972.00
2023-03-31T21:47:55.827Z,95971.19
2023-03-31T21:49:57.279Z,95969.63
2023-03-31T21:51:59.351Z,95970.56
2023-03-31T21:54:00.659Z,95976.31
2023-03-31T21:56:02.236Z,95976.94
2023-03-31T21:58:04.505Z,95975.31
2023-03-31T22:00:06.233Z,95982.22
2023-03-31T22:02:07.586Z,95981.44
2023-03-31T22:04:09.373Z,95984.25
2023-03-31T22:06:11.224Z,95982.97
2023-03-31T22:08:12.548Z,95981.88
2023-03-31T22:10:13.879Z,95982.03
2023-03-31T22:12:15.494Z,95986.44
2023-03-31T22:14:16.798Z,95985.06
2023-03-31T22:16:18.182Z,95988.81
2023-03-31T22:18:19.504Z,95973.47
2023-03-31T22:20:21.074Z,95981.25
2023-03-31T22:22:22.397Z,95976.66
2023-03-31T22:24:23.707Z,95988.06
2023-03-31T22:26:24.997Z,95976.69
2023-03-31T22:28:26.332Z,95984.91
2023-03-31T22:30:27.773Z,95985.69
2023-03-31T22:32:29.152Z,95989.06
2023-03-31T22:34:33.400Z,95979.84
2023-03-31T22:36:34.702Z,95984.59
2023-03-31T22:38:36.024Z,95974.94
2023-03-31T22:40:37.335Z,95970.16
2023-03-31T22:42:38.718Z,95972.47
2023-03-31T22:44:41.222Z,95977.03
2023-03-31T22:46:42.593Z,95973.72
2023-03-31T22:48:44.156Z,95963.97
2023-03-31T22:50:45.708Z,95973.63
2023-03-31T22:52:47.114Z,95969.84
2023-03-31T22:54:48.408Z,95970.41
2023-03-31T22:56:50.300Z,95961.72
2023-03-31T22:58:51.669Z,95967.78
2023-03-31T23:00:53.005Z,95960.13
2023-03-31T23:02:54.413Z,95967.25
2023-03-31T23:04:56.041Z,95960.47
2023-03-31T23:06:57.651Z,95956.66
2023-03-31T23:08:58.941Z,95963.88
2023-03-31T23:11:00.784Z,95968.34
2023-03-31T23:13:02.136Z,95960.13
2023-03-31T23:15:03.902Z,95960.22
2023-03-31T23:17:05.634Z,95961.31
2023-03-31T23:19:06.987Z,95961.78
2023-03-31T23:21:08.341Z,95959.69
2023-03-31T23:23:09.632Z,95968.75
2023-03-31T23:25:10.931Z,95962.78
2023-03-31T23:27:12.228Z,95962.50
2023-03-31T23:29:13.521Z,95959.22
2023-03-31T23:31:15.363Z,95958.75
2023-03-31T23:33:16.791Z,95960.97
2023-03-31T23:35:18.136Z,95962.25
2023-03-31T23:37:19.500Z,95957.56
2023-03-31T23:39:21.519Z,95958.84
2023-03-31T23:41:22.928Z,95955.38
2023-03-31T23:43:25.285Z,95957.00
2023-03-31T23:45:27.245Z,95956.66
2023-03-31T23:47:28.664Z,95949.50
2023-03-31T23:49:32.853Z,95954.38
2023-03-31T23:51:34.193Z,95952.34
2023-03-31T23:53:35.702Z,95951.81
2023-03-31T23:55:38.025Z,95952.81
2023-03-31T23:57:39.422Z,95950.09
2023-03-31T23:59:40.721Z,95952.09
